Aérodrome :
LOGIN :

S'inscrire | Disclaimer

   EN    FR    IT 

 










Légende :    VFR   VFR Marginal   IFR   IFR Intensif   IFR Très Intensif
Visi : 
Plafond : 
>= 8 km
>= 3000ft
5 à 8 km
1000 à 3000 ft
1500m à 5 km
500 à 1000 ft
800 à 1500m
200 à 500 ft
< 800m
< 200 ft
Symboles :   Orages  Brouillard  Fortes neiges  Fortes précipitations  Vent > 20 kt
SIGMETs :   Divers  Orages  Givrage  Turbulence  Onde Orograph.  Cendres Volcan.







- Altitude de l'aérodrome : 600 ft
- Code IATA : VIE


LOWW - Vienna Schwechat

DERNIER METAR :
  • 142120Z 31002KT CAVOK 04/03 Q1030 NOSIG

METARs EXPIRÉS :
  • 142050Z 34003KT CAVOK 05/03 Q1030 NOSIG
  • 142020Z VRB02KT CAVOK 05/03 Q1030 NOSIG
  • 141950Z 36005KT 310V060 CAVOK 05/03 Q1030 NOSIG
  • 141920Z 34005KT CAVOK 06/04 Q1030 NOSIG
  • 141850Z 31005KT CAVOK 07/04 Q1030 NOSIG

TAF TAF LOWW
Valide du 14 à 21h jusqu'au 16 à 03h UTC


142015Z 1421/1603 VRB02KT CAVOK TX11/1511Z TNM01/1603Z
PROB30
TEMPO 1504/1508 1200 BCFG NSC
TEMPO 1510/1517 03006KT
BECMG 1517/1520 9999 SCT050
Pas de NOTAMs connus pour ce terrain.



MET'MAP, la Météo Aéronautique d'un coup d'oeil ! - Copyright ORBIFLY Décembre 2007 - Disclaimer

ORBIFLY MET'MAP TEAM :

Programmation & Développement : Alexandra Zaïnal
Conception & Développement : Baudouin d'Aumeries
Co-Programmation & Développement : Marc-Olivier Méhu
Soutien technique & logistique : Manuel Goepfert

Contact : metmap@orbifly.com




SOURCES & CREDITS :

   NOAA